sensor_id;sensor_type;location;lat;lon;timestamp;temperature;humidity
4604;DHT22;2314;48.272;11.562;2023-11-21T00:00:02;6.30;99.90
4604;DHT22;2314;48.272;11.562;2023-11-21T00:02:35;6.20;99.90
4604;DHT22;2314;48.272;11.562;2023-11-21T00:05:06;6.20;99.90
4604;DHT22;2314;48.272;11.562;2023-11-21T00:07:35;6.20;99.90
4604;DHT22;2314;48.272;11.562;2023-11-21T00:10:02;6.20;99.90
4604;DHT22;2314;48.272;11.562;2023-11-21T00:12:30;6.20;99.90
4604;DHT22;2314;48.272;11.562;2023-11-21T00:14:59;6.20;99.90
4604;DHT22;2314;48.272;11.562;2023-11-21T00:17:27;6.20;99.90
4604;DHT22;2314;48.272;11.562;2023-11-21T00:19:53;6.20;99.90
4604;DHT22;2314;48.272;11.562;2023-11-21T00:22:22;6.20;99.90
4604;DHT22;2314;48.272;11.562;2023-11-21T00:24:49;6.20;99.90
4604;DHT22;2314;48.272;11.562;2023-11-21T00:27:16;6.20;99.90
4604;DHT22;2314;48.272;11.562;2023-11-21T00:29:43;6.20;99.90
4604;DHT22;2314;48.272;11.562;2023-11-21T00:32:10;6.20;99.90
4604;DHT22;2314;48.272;11.562;2023-11-21T00:34:37;6.20;99.90
4604;DHT22;2314;48.272;11.562;2023-11-21T00:37:04;6.30;99.90
4604;DHT22;2314;48.272;11.562;2023-11-21T00:39:32;6.30;99.90
4604;DHT22;2314;48.272;11.562;2023-11-21T00:42:00;6.30;99.90
4604;DHT22;2314;48.272;11.562;2023-11-21T00:44:27;6.30;99.90
4604;DHT22;2314;48.272;11.562;2023-11-21T00:46:54;6.30;99.90
4604;DHT22;2314;48.272;11.562;2023-11-21T00:49:21;6.40;99.90
4604;DHT22;2314;48.272;11.562;2023-11-21T00:51:49;6.40;99.90
4604;DHT22;2314;48.272;11.562;2023-11-21T00:54:16;6.40;99.90
4604;DHT22;2314;48.272;11.562;2023-11-21T00:56:44;6.50;99.90
4604;DHT22;2314;48.272;11.562;2023-11-21T00:59:12;6.50;99.90
4604;DHT22;2314;48.272;11.562;2023-11-21T01:01:40;6.50;99.90
4604;DHT22;2314;48.272;11.562;2023-11-21T01:04:07;6.50;99.90
4604;DHT22;2314;48.272;11.562;2023-11-21T01:06:34;6.60;99.90
4604;DHT22;2314;48.272;11.562;2023-11-21T01:09:01;6.50;99.90
4604;DHT22;2314;48.272;11.562;2023-11-21T01:11:33;6.50;99.90
4604;DHT22;2314;48.272;11.562;2023-11-21T01:14:04;6.50;99.90
4604;DHT22;2314;48.272;11.562;2023-11-21T01:16:32;6.40;99.90
4604;DHT22;2314;48.272;11.562;2023-11-21T01:18:59;6.30;99.90
4604;DHT22;2314;48.272;11.562;2023-11-21T01:21:26;6.30;99.90
4604;DHT22;2314;48.272;11.562;2023-11-21T01:23:54;6.20;99.90
4604;DHT22;2314;48.272;11.562;2023-11-21T01:26:21;6.20;99.90
4604;DHT22;2314;48.272;11.562;2023-11-21T01:28:49;6.20;99.90
4604;DHT22;2314;48.272;11.562;2023-11-21T01:31:17;6.20;99.90
4604;DHT22;2314;48.272;11.562;2023-11-21T01:33:48;6.20;99.90
4604;DHT22;2314;48.272;11.562;2023-11-21T01:36:15;6.20;99.90
4604;DHT22;2314;48.272;11.562;2023-11-21T01:38:42;6.30;99.90
4604;DHT22;2314;48.272;11.562;2023-11-21T01:41:09;6.30;99.90
4604;DHT22;2314;48.272;11.562;2023-11-21T01:43:36;6.30;99.90
4604;DHT22;2314;48.272;11.562;2023-11-21T01:46:04;6.30;99.90
4604;DHT22;2314;48.272;11.562;2023-11-21T01:48:34;6.40;99.90
4604;DHT22;2314;48.272;11.562;2023-11-21T01:51:01;6.40;99.90
4604;DHT22;2314;48.272;11.562;2023-11-21T01:53:28;6.40;99.90
4604;DHT22;2314;48.272;11.562;2023-11-21T01:55:56;6.30;99.90
4604;DHT22;2314;48.272;11.562;2023-11-21T01:58:23;6.40;99.90
4604;DHT22;2314;48.272;11.562;2023-11-21T02:00:50;6.40;99.90
4604;DHT22;2314;48.272;11.562;2023-11-21T02:03:20;6.30;99.90
4604;DHT22;2314;48.272;11.562;2023-11-21T02:05:48;6.40;99.90
4604;DHT22;2314;48.272;11.562;2023-11-21T02:08:16;6.30;99.90
4604;DHT22;2314;48.272;11.562;2023-11-21T02:10:45;6.30;99.90
4604;DHT22;2314;48.272;11.562;2023-11-21T02:13:13;6.40;99.90
4604;DHT22;2314;48.272;11.562;2023-11-21T02:15:42;6.40;99.90
4604;DHT22;2314;48.272;11.562;2023-11-21T02:18:09;6.30;99.90
4604;DHT22;2314;48.272;11.562;2023-11-21T02:20:36;6.30;99.90
4604;DHT22;2314;48.272;11.562;2023-11-21T02:23:08;6.30;99.90
4604;DHT22;2314;48.272;11.562;2023-11-21T02:25:35;6.40;99.90
4604;DHT22;2314;48.272;11.562;2023-11-21T02:28:03;6.40;99.90
4604;DHT22;2314;48.272;11.562;2023-11-21T02:30:32;6.30;99.90
4604;DHT22;2314;48.272;11.562;2023-11-21T02:32:59;6.30;99.90
4604;DHT22;2314;48.272;11.562;2023-11-21T02:35:26;6.30;99.90
4604;DHT22;2314;48.272;11.562;2023-11-21T02:37:53;6.30;99.90
4604;DHT22;2314;48.272;11.562;2023-11-21T02:40:22;6.30;99.90
4604;DHT22;2314;48.272;11.562;2023-11-21T02:42:51;6.30;99.90
4604;DHT22;2314;48.272;11.562;2023-11-21T02:45:19;6.30;99.90
4604;DHT22;2314;48.272;11.562;2023-11-21T02:47:47;6.30;99.90
4604;DHT22;2314;48.272;11.562;2023-11-21T02:50:15;6.20;99.90
4604;DHT22;2314;48.272;11.562;2023-11-21T02:52:44;6.20;99.90
4604;DHT22;2314;48.272;11.562;2023-11-21T02:55:11;6.20;99.90
4604;DHT22;2314;48.272;11.562;2023-11-21T02:57:39;6.20;99.90
4604;DHT22;2314;48.272;11.562;2023-11-21T03:00:07;6.20;99.90
4604;DHT22;2314;48.272;11.562;2023-11-21T03:02:38;6.20;99.90
4604;DHT22;2314;48.272;11.562;2023-11-21T03:05:06;6.20;99.90
4604;DHT22;2314;48.272;11.562;2023-11-21T03:07:34;6.20;99.90
4604;DHT22;2314;48.272;11.562;2023-11-21T03:10:01;6.20;99.90
4604;DHT22;2314;48.272;11.562;2023-11-21T03:12:29;6.20;99.90
4604;DHT22;2314;48.272;11.562;2023-11-21T03:14:58;6.20;99.90
4604;DHT22;2314;48.272;11.562;2023-11-21T03:17:25;6.20;99.90
4604;DHT22;2314;48.272;11.562;2023-11-21T03:19:52;6.20;99.90
4604;DHT22;2314;48.272;11.562;2023-11-21T03:22:20;6.20;99.90
4604;DHT22;2314;48.272;11.562;2023-11-21T03:24:47;6.20;99.90
4604;DHT22;2314;48.272;11.562;2023-11-21T03:27:14;6.20;99.90
4604;DHT22;2314;48.272;11.562;2023-11-21T03:29:41;6.20;99.90
4604;DHT22;2314;48.272;11.562;2023-11-21T03:32:10;6.20;99.90
4604;DHT22;2314;48.272;11.562;2023-11-21T03:34:53;6.20;99.90
4604;DHT22;2314;48.272;11.562;2023-11-21T03:37:21;6.20;99.90
4604;DHT22;2314;48.272;11.562;2023-11-21T03:39:48;6.20;99.90
4604;DHT22;2314;48.272;11.562;2023-11-21T03:42:15;6.20;99.90
4604;DHT22;2314;48.272;11.562;2023-11-21T03:44:42;6.20;99.90
4604;DHT22;2314;48.272;11.562;2023-11-21T03:47:11;6.20;99.90
4604;DHT22;2314;48.272;11.562;2023-11-21T03:49:38;6.20;99.90
4604;DHT22;2314;48.272;11.562;2023-11-21T03:52:05;6.10;99.90
4604;DHT22;2314;48.272;11.562;2023-11-21T03:54:34;6.10;99.90
4604;DHT22;2314;48.272;11.562;2023-11-21T03:57:01;6.10;99.90
4604;DHT22;2314;48.272;11.562;2023-11-21T03:59:28;6.10;99.90
4604;DHT22;2314;48.272;11.562;2023-11-21T04:01:55;6.00;99.90
4604;DHT22;2314;48.272;11.562;2023-11-21T04:04:25;6.00;99.90
4604;DHT22;2314;48.272;11.562;2023-11-21T04:06:51;5.90;99.90
4604;DHT22;2314;48.272;11.562;2023-11-21T04:09:19;5.90;99.90
4604;DHT22;2314;48.272;11.562;2023-11-21T04:11:46;5.80;99.90
4604;DHT22;2314;48.272;11.562;2023-11-21T04:14:13;5.70;99.90
4604;DHT22;2314;48.272;11.562;2023-11-21T04:16:40;5.70;99.90
4604;DHT22;2314;48.272;11.562;2023-11-21T04:19:08;5.60;99.90
4604;DHT22;2314;48.272;11.562;2023-11-21T04:21:37;5.50;99.90
4604;DHT22;2314;48.272;11.562;2023-11-21T04:24:04;5.50;99.90
4604;DHT22;2314;48.272;11.562;2023-11-21T04:26:32;5.50;99.90
4604;DHT22;2314;48.272;11.562;2023-11-21T04:28:59;5.50;99.90
4604;DHT22;2314;48.272;11.562;2023-11-21T04:31:26;5.40;99.90
4604;DHT22;2314;48.272;11.562;2023-11-21T04:33:53;5.40;99.90
4604;DHT22;2314;48.272;11.562;2023-11-21T04:36:20;5.40;99.90
4604;DHT22;2314;48.272;11.562;2023-11-21T04:38:49;5.30;99.90
4604;DHT22;2314;48.272;11.562;2023-11-21T04:41:15;5.30;99.90
4604;DHT22;2314;48.272;11.562;2023-11-21T04:43:43;5.20;99.90
4604;DHT22;2314;48.272;11.562;2023-11-21T04:46:10;5.20;99.90
4604;DHT22;2314;48.272;11.562;2023-11-21T04:48:37;5.20;99.90
4604;DHT22;2314;48.272;11.562;2023-11-21T04:51:05;5.20;99.90
4604;DHT22;2314;48.272;11.562;2023-11-21T04:53:32;5.20;99.90
4604;DHT22;2314;48.272;11.562;2023-11-21T04:56:01;5.30;99.90
4604;DHT22;2314;48.272;11.562;2023-11-21T04:58:29;5.30;99.90
4604;DHT22;2314;48.272;11.562;2023-11-21T05:00:56;5.40;99.90
4604;DHT22;2314;48.272;11.562;2023-11-21T05:03:23;5.50;99.90
4604;DHT22;2314;48.272;11.562;2023-11-21T05:05:51;5.60;99.90
4604;DHT22;2314;48.272;11.562;2023-11-21T05:08:18;5.60;99.90
4604;DHT22;2314;48.272;11.562;2023-11-21T05:10:46;5.70;99.90
4604;DHT22;2314;48.272;11.562;2023-11-21T05:13:14;5.70;99.90
4604;DHT22;2314;48.272;11.562;2023-11-21T05:15:43;5.70;99.90
4604;DHT22;2314;48.272;11.562;2023-11-21T05:18:10;5.80;99.90
4604;DHT22;2314;48.272;11.562;2023-11-21T05:20:39;5.90;99.90
4604;DHT22;2314;48.272;11.562;2023-11-21T05:23:06;5.90;99.90
4604;DHT22;2314;48.272;11.562;2023-11-21T05:25:33;5.90;99.90
4604;DHT22;2314;48.272;11.562;2023-11-21T05:28:01;5.90;99.90
4604;DHT22;2314;48.272;11.562;2023-11-21T05:30:31;5.80;99.90
4604;DHT22;2314;48.272;11.562;2023-11-21T05:32:58;5.80;99.90
4604;DHT22;2314;48.272;11.562;2023-11-21T05:35:25;5.80;99.90
4604;DHT22;2314;48.272;11.562;2023-11-21T05:37:52;5.80;99.90
4604;DHT22;2314;48.272;11.562;2023-11-21T05:40:19;5.70;99.90
4604;DHT22;2314;48.272;11.562;2023-11-21T05:42:48;5.70;99.90
4604;DHT22;2314;48.272;11.562;2023-11-21T05:45:16;5.60;99.90
4604;DHT22;2314;48.272;11.562;2023-11-21T05:47:46;5.60;99.90
4604;DHT22;2314;48.272;11.562;2023-11-21T05:50:14;5.50;99.90
4604;DHT22;2314;48.272;11.562;2023-11-21T05:52:44;5.50;99.90
4604;DHT22;2314;48.272;11.562;2023-11-21T05:55:11;5.40;99.90
4604;DHT22;2314;48.272;11.562;2023-11-21T05:57:40;5.40;99.90
4604;DHT22;2314;48.272;11.562;2023-11-21T06:00:09;5.40;99.90
4604;DHT22;2314;48.272;11.562;2023-11-21T06:02:39;5.30;99.90
4604;DHT22;2314;48.272;11.562;2023-11-21T06:05:08;5.30;99.90
4604;DHT22;2314;48.272;11.562;2023-11-21T06:07:36;5.20;99.90
4604;DHT22;2314;48.272;11.562;2023-11-21T06:10:05;5.10;99.90
4604;DHT22;2314;48.272;11.562;2023-11-21T06:12:35;5.10;99.90
4604;DHT22;2314;48.272;11.562;2023-11-21T06:15:03;5.00;99.90
4604;DHT22;2314;48.272;11.562;2023-11-21T06:17:31;5.00;99.90
4604;DHT22;2314;48.272;11.562;2023-11-21T06:19:58;5.00;99.90
4604;DHT22;2314;48.272;11.562;2023-11-21T06:22:27;5.00;99.90
4604;DHT22;2314;48.272;11.562;2023-11-21T06:24:56;5.00;99.90
4604;DHT22;2314;48.272;11.562;2023-11-21T06:27:23;5.00;99.90
4604;DHT22;2314;48.272;11.562;2023-11-21T06:29:51;5.00;99.90
4604;DHT22;2314;48.272;11.562;2023-11-21T06:32:36;5.10;99.90
4604;DHT22;2314;48.272;11.562;2023-11-21T06:35:07;5.20;99.90
4604;DHT22;2314;48.272;11.562;2023-11-21T06:37:36;5.20;99.90
4604;DHT22;2314;48.272;11.562;2023-11-21T06:40:04;5.20;99.90
4604;DHT22;2314;48.272;11.562;2023-11-21T06:42:33;5.20;99.90
4604;DHT22;2314;48.272;11.562;2023-11-21T06:45:00;5.20;99.90
4604;DHT22;2314;48.272;11.562;2023-11-21T06:47:29;5.30;99.90
4604;DHT22;2314;48.272;11.562;2023-11-21T06:49:56;5.30;99.90
4604;DHT22;2314;48.272;11.562;2023-11-21T06:52:23;5.40;99.90
4604;DHT22;2314;48.272;11.562;2023-11-21T06:54:52;5.50;99.90
4604;DHT22;2314;48.272;11.562;2023-11-21T06:57:19;5.50;99.90
4604;DHT22;2314;48.272;11.562;2023-11-21T06:59:46;5.60;99.90
4604;DHT22;2314;48.272;11.562;2023-11-21T07:02:14;5.60;99.90
4604;DHT22;2314;48.272;11.562;2023-11-21T07:04:43;5.70;99.90
4604;DHT22;2314;48.272;11.562;2023-11-21T07:07:10;5.70;99.90
4604;DHT22;2314;48.272;11.562;2023-11-21T07:09:38;5.80;99.90
4604;DHT22;2314;48.272;11.562;2023-11-21T07:12:07;5.80;99.90
4604;DHT22;2314;48.272;11.562;2023-11-21T07:14:34;5.80;99.90
4604;DHT22;2314;48.272;11.562;2023-11-21T07:17:02;5.80;99.90
4604;DHT22;2314;48.272;11.562;2023-11-21T07:19:29;5.80;99.90
4604;DHT22;2314;48.272;11.562;2023-11-21T07:21:56;5.90;99.90
4604;DHT22;2314;48.272;11.562;2023-11-21T07:24:24;5.90;99.90
4604;DHT22;2314;48.272;11.562;2023-11-21T07:26:51;6.00;99.90
4604;DHT22;2314;48.272;11.562;2023-11-21T07:29:23;6.10;99.90
4604;DHT22;2314;48.272;11.562;2023-11-21T07:31:52;6.20;99.90
4604;DHT22;2314;48.272;11.562;2023-11-21T07:34:19;6.30;99.90
4604;DHT22;2314;48.272;11.562;2023-11-21T07:36:46;6.30;99.90
4604;DHT22;2314;48.272;11.562;2023-11-21T07:39:13;6.30;99.90
4604;DHT22;2314;48.272;11.562;2023-11-21T07:41:41;6.40;99.90
4604;DHT22;2314;48.272;11.562;2023-11-21T07:44:14;6.50;99.90
4604;DHT22;2314;48.272;11.562;2023-11-21T07:46:44;6.50;99.90
4604;DHT22;2314;48.272;11.562;2023-11-21T07:49:11;6.60;99.90
4604;DHT22;2314;48.272;11.562;2023-11-21T07:51:43;6.60;99.90
4604;DHT22;2314;48.272;11.562;2023-11-21T07:54:10;6.70;99.90
4604;DHT22;2314;48.272;11.562;2023-11-21T07:56:37;6.70;99.90
4604;DHT22;2314;48.272;11.562;2023-11-21T07:59:04;6.80;99.90
4604;DHT22;2314;48.272;11.562;2023-11-21T08:01:31;6.80;99.90
4604;DHT22;2314;48.272;11.562;2023-11-21T08:04:00;6.80;99.90
4604;DHT22;2314;48.272;11.562;2023-11-21T08:06:29;6.80;99.90
4604;DHT22;2314;48.272;11.562;2023-11-21T08:08:56;6.80;99.90
4604;DHT22;2314;48.272;11.562;2023-11-21T08:11:23;6.80;99.90
4604;DHT22;2314;48.272;11.562;2023-11-21T08:13:51;6.70;99.90
4604;DHT22;2314;48.272;11.562;2023-11-21T08:16:19;6.70;99.90
4604;DHT22;2314;48.272;11.562;2023-11-21T08:18:46;6.70;99.90
4604;DHT22;2314;48.272;11.562;2023-11-21T08:21:14;6.70;99.90
4604;DHT22;2314;48.272;11.562;2023-11-21T08:23:41;6.70;99.90
4604;DHT22;2314;48.272;11.562;2023-11-21T08:26:08;6.70;99.90
4604;DHT22;2314;48.272;11.562;2023-11-21T08:28:35;6.60;99.90
4604;DHT22;2314;48.272;11.562;2023-11-21T08:31:02;6.60;99.90
4604;DHT22;2314;48.272;11.562;2023-11-21T08:33:30;6.60;99.90
4604;DHT22;2314;48.272;11.562;2023-11-21T08:35:57;6.50;99.90
4604;DHT22;2314;48.272;11.562;2023-11-21T08:38:28;6.40;99.90
4604;DHT22;2314;48.272;11.562;2023-11-21T08:40:55;6.40;99.90
4604;DHT22;2314;48.272;11.562;2023-11-21T08:43:22;6.40;99.90
4604;DHT22;2314;48.272;11.562;2023-11-21T08:45:49;6.50;99.90
4604;DHT22;2314;48.272;11.562;2023-11-21T08:48:17;6.50;99.90
4604;DHT22;2314;48.272;11.562;2023-11-21T08:50:44;6.60;99.90
4604;DHT22;2314;48.272;11.562;2023-11-21T08:53:11;6.60;99.90
4604;DHT22;2314;48.272;11.562;2023-11-21T08:55:39;6.60;99.90
4604;DHT22;2314;48.272;11.562;2023-11-21T08:58:06;6.60;99.90
4604;DHT22;2314;48.272;11.562;2023-11-21T09:00:33;6.60;99.90
4604;DHT22;2314;48.272;11.562;2023-11-21T09:03:01;6.60;99.90
4604;DHT22;2314;48.272;11.562;2023-11-21T09:05:29;6.60;99.90
4604;DHT22;2314;48.272;11.562;2023-11-21T09:07:56;6.70;99.90
4604;DHT22;2314;48.272;11.562;2023-11-21T09:10:23;6.80;99.90
4604;DHT22;2314;48.272;11.562;2023-11-21T09:12:52;7.00;99.90
4604;DHT22;2314;48.272;11.562;2023-11-21T09:15:19;7.10;99.90
4604;DHT22;2314;48.272;11.562;2023-11-21T09:17:47;7.30;99.90
4604;DHT22;2314;48.272;11.562;2023-11-21T09:20:14;7.60;99.90
4604;DHT22;2314;48.272;11.562;2023-11-21T09:22:41;7.80;99.90
4604;DHT22;2314;48.272;11.562;2023-11-21T09:25:10;7.90;99.90
4604;DHT22;2314;48.272;11.562;2023-11-21T09:27:38;8.00;99.90
4604;DHT22;2314;48.272;11.562;2023-11-21T09:30:07;8.10;99.90
4604;DHT22;2314;48.272;11.562;2023-11-21T09:32:36;8.00;99.90
4604;DHT22;2314;48.272;11.562;2023-11-21T09:35:06;8.00;99.90
4604;DHT22;2314;48.272;11.562;2023-11-21T09:37:34;8.00;99.90
4604;DHT22;2314;48.272;11.562;2023-11-21T09:40:03;8.00;99.90
4604;DHT22;2314;48.272;11.562;2023-11-21T09:42:40;8.00;99.90
4604;DHT22;2314;48.272;11.562;2023-11-21T09:45:17;8.10;99.90
4604;DHT22;2314;48.272;11.562;2023-11-21T09:47:49;8.40;99.90
4604;DHT22;2314;48.272;11.562;2023-11-21T09:50:19;8.60;99.90
4604;DHT22;2314;48.272;11.562;2023-11-21T09:52:54;8.70;99.90
4604;DHT22;2314;48.272;11.562;2023-11-21T09:55:23;8.90;99.90
4604;DHT22;2314;48.272;11.562;2023-11-21T09:57:56;9.20;99.90
4604;DHT22;2314;48.272;11.562;2023-11-21T10:00:24;9.40;99.90
4604;DHT22;2314;48.272;11.562;2023-11-21T10:02:53;9.70;99.90
4604;DHT22;2314;48.272;11.562;2023-11-21T10:05:20;9.80;99.90
4604;DHT22;2314;48.272;11.562;2023-11-21T10:07:49;10.00;99.90
4604;DHT22;2314;48.272;11.562;2023-11-21T10:10:18;10.40;99.90
4604;DHT22;2314;48.272;11.562;2023-11-21T10:12:49;10.50;99.90
4604;DHT22;2314;48.272;11.562;2023-11-21T10:15:21;10.30;99.90
4604;DHT22;2314;48.272;11.562;2023-11-21T10:17:52;10.20;99.90
4604;DHT22;2314;48.272;11.562;2023-11-21T10:20:20;10.20;99.90
4604;DHT22;2314;48.272;11.562;2023-11-21T10:22:47;10.30;99.90
4604;DHT22;2314;48.272;11.562;2023-11-21T10:25:15;10.20;99.90
4604;DHT22;2314;48.272;11.562;2023-11-21T10:27:47;10.30;99.90
4604;DHT22;2314;48.272;11.562;2023-11-21T10:30:16;10.30;99.90
4604;DHT22;2314;48.272;11.562;2023-11-21T10:32:43;10.30;99.90
4604;DHT22;2314;48.272;11.562;2023-11-21T10:35:13;10.30;99.90
4604;DHT22;2314;48.272;11.562;2023-11-21T10:37:40;10.40;99.90
4604;DHT22;2314;48.272;11.562;2023-11-21T10:40:10;10.50;99.90
4604;DHT22;2314;48.272;11.562;2023-11-21T10:42:38;10.60;99.90
4604;DHT22;2314;48.272;11.562;2023-11-21T10:45:06;10.70;99.90
4604;DHT22;2314;48.272;11.562;2023-11-21T10:47:38;10.70;99.90
4604;DHT22;2314;48.272;11.562;2023-11-21T10:50:06;10.90;99.90
4604;DHT22;2314;48.272;11.562;2023-11-21T10:52:39;11.10;99.90
4604;DHT22;2314;48.272;11.562;2023-11-21T10:55:16;11.40;99.90
4604;DHT22;2314;48.272;11.562;2023-11-21T10:57:46;11.50;99.90
4604;DHT22;2314;48.272;11.562;2023-11-21T11:00:16;11.50;99.90
4604;DHT22;2314;48.272;11.562;2023-11-21T11:02:49;11.40;99.90
4604;DHT22;2314;48.272;11.562;2023-11-21T11:05:21;11.30;99.90
4604;DHT22;2314;48.272;11.562;2023-11-21T11:07:52;11.10;99.90
4604;DHT22;2314;48.272;11.562;2023-11-21T11:10:28;10.80;99.90
4604;DHT22;2314;48.272;11.562;2023-11-21T11:13:02;10.60;99.90
4604;DHT22;2314;48.272;11.562;2023-11-21T11:15:33;10.50;99.90
4604;DHT22;2314;48.272;11.562;2023-11-21T11:18:00;10.40;99.90
4604;DHT22;2314;48.272;11.562;2023-11-21T11:20:34;10.30;99.90
4604;DHT22;2314;48.272;11.562;2023-11-21T11:23:19;10.30;99.90
4604;DHT22;2314;48.272;11.562;2023-11-21T11:26:07;10.30;99.90
4604;DHT22;2314;48.272;11.562;2023-11-21T11:28:51;10.30;99.90
4604;DHT22;2314;48.272;11.562;2023-11-21T11:31:31;10.50;99.90
4604;DHT22;2314;48.272;11.562;2023-11-21T11:34:11;10.70;99.90
4604;DHT22;2314;48.272;11.562;2023-11-21T11:36:48;10.80;99.90
4604;DHT22;2314;48.272;11.562;2023-11-21T11:39:30;11.00;99.90
4604;DHT22;2314;48.272;11.562;2023-11-21T11:42:02;11.20;99.90
4604;DHT22;2314;48.272;11.562;2023-11-21T11:44:49;11.30;99.90
4604;DHT22;2314;48.272;11.562;2023-11-21T11:47:23;11.40;99.90
4604;DHT22;2314;48.272;11.562;2023-11-21T11:49:57;11.40;99.90
4604;DHT22;2314;48.272;11.562;2023-11-21T11:52:33;11.40;99.90
4604;DHT22;2314;48.272;11.562;2023-11-21T11:55:03;11.50;99.90
4604;DHT22;2314;48.272;11.562;2023-11-21T11:57:30;11.60;99.90
4604;DHT22;2314;48.272;11.562;2023-11-21T12:00:08;11.50;99.90
4604;DHT22;2314;48.272;11.562;2023-11-21T12:02:38;11.30;99.90
4604;DHT22;2314;48.272;11.562;2023-11-21T12:05:10;11.20;99.90
4604;DHT22;2314;48.272;11.562;2023-11-21T12:07:46;11.10;99.90
4604;DHT22;2314;48.272;11.562;2023-11-21T12:10:17;11.00;99.90
4604;DHT22;2314;48.272;11.562;2023-11-21T12:12:46;10.90;99.90
4604;DHT22;2314;48.272;11.562;2023-11-21T12:15:14;10.90;99.90
4604;DHT22;2314;48.272;11.562;2023-11-21T12:17:42;10.90;99.90
4604;DHT22;2314;48.272;11.562;2023-11-21T12:20:10;11.00;99.90
4604;DHT22;2314;48.272;11.562;2023-11-21T12:22:43;11.00;99.90
4604;DHT22;2314;48.272;11.562;2023-11-21T12:25:13;11.00;99.90
4604;DHT22;2314;48.272;11.562;2023-11-21T12:27:44;11.10;99.90
4604;DHT22;2314;48.272;11.562;2023-11-21T12:30:13;11.10;99.90
4604;DHT22;2314;48.272;11.562;2023-11-21T12:32:41;11.00;99.90
4604;DHT22;2314;48.272;11.562;2023-11-21T12:35:09;11.00;99.90
4604;DHT22;2314;48.272;11.562;2023-11-21T12:37:37;10.90;99.90
4604;DHT22;2314;48.272;11.562;2023-11-21T12:40:06;10.80;99.90
4604;DHT22;2314;48.272;11.562;2023-11-21T12:42:39;10.80;99.90
4604;DHT22;2314;48.272;11.562;2023-11-21T12:45:18;10.80;99.90
4604;DHT22;2314;48.272;11.562;2023-11-21T12:47:47;10.80;99.90
4604;DHT22;2314;48.272;11.562;2023-11-21T12:50:18;10.80;99.90
4604;DHT22;2314;48.272;11.562;2023-11-21T12:52:50;10.70;99.90
4604;DHT22;2314;48.272;11.562;2023-11-21T12:55:20;10.70;99.90
4604;DHT22;2314;48.272;11.562;2023-11-21T12:57:50;10.60;99.90
4604;DHT22;2314;48.272;11.562;2023-11-21T13:00:28;10.60;99.90
4604;DHT22;2314;48.272;11.562;2023-11-21T13:02:56;10.70;99.90
4604;DHT22;2314;48.272;11.562;2023-11-21T13:05:33;10.80;99.90
4604;DHT22;2314;48.272;11.562;2023-11-21T13:08:06;10.90;99.90
4604;DHT22;2314;48.272;11.562;2023-11-21T13:10:36;11.00;99.90
4604;DHT22;2314;48.272;11.562;2023-11-21T13:13:06;11.10;99.90
4604;DHT22;2314;48.272;11.562;2023-11-21T13:15:36;11.20;99.90
4604;DHT22;2314;48.272;11.562;2023-11-21T13:18:04;11.10;99.90
4604;DHT22;2314;48.272;11.562;2023-11-21T13:20:32;11.00;99.90
4604;DHT22;2314;48.272;11.562;2023-11-21T13:22:59;10.90;99.90
4604;DHT22;2314;48.272;11.562;2023-11-21T13:25:28;10.60;99.90
4604;DHT22;2314;48.272;11.562;2023-11-21T13:27:57;10.20;99.90
4604;DHT22;2314;48.272;11.562;2023-11-21T13:30:29;9.80;99.90
4604;DHT22;2314;48.272;11.562;2023-11-21T13:32:59;9.40;99.90
4604;DHT22;2314;48.272;11.562;2023-11-21T13:35:27;9.00;99.90
4604;DHT22;2314;48.272;11.562;2023-11-21T13:38:05;8.70;99.90
4604;DHT22;2314;48.272;11.562;2023-11-21T13:40:35;8.60;99.90
4604;DHT22;2314;48.272;11.562;2023-11-21T13:43:08;8.40;99.90
4604;DHT22;2314;48.272;11.562;2023-11-21T13:45:38;8.30;99.90
4604;DHT22;2314;48.272;11.562;2023-11-21T13:48:06;8.20;99.90
4604;DHT22;2314;48.272;11.562;2023-11-21T13:50:35;8.20;99.90
4604;DHT22;2314;48.272;11.562;2023-11-21T13:53:03;8.20;99.90
4604;DHT22;2314;48.272;11.562;2023-11-21T13:55:36;8.20;99.90
4604;DHT22;2314;48.272;11.562;2023-11-21T13:58:05;8.20;99.90
4604;DHT22;2314;48.272;11.562;2023-11-21T14:00:36;8.20;99.90
4604;DHT22;2314;48.272;11.562;2023-11-21T14:03:09;8.20;99.90
4604;DHT22;2314;48.272;11.562;2023-11-21T14:05:44;8.10;99.90
4604;DHT22;2314;48.272;11.562;2023-11-21T14:08:13;8.10;99.90
4604;DHT22;2314;48.272;11.562;2023-11-21T14:10:42;8.10;99.90
4604;DHT22;2314;48.272;11.562;2023-11-21T14:13:11;8.10;99.90
4604;DHT22;2314;48.272;11.562;2023-11-21T14:15:41;8.10;99.90
4604;DHT22;2314;48.272;11.562;2023-11-21T14:18:11;8.10;99.90
4604;DHT22;2314;48.272;11.562;2023-11-21T14:20:40;8.10;99.90
4604;DHT22;2314;48.272;11.562;2023-11-21T14:23:07;8.00;99.90
4604;DHT22;2314;48.272;11.562;2023-11-21T14:25:36;8.00;99.90
4604;DHT22;2314;48.272;11.562;2023-11-21T14:28:06;8.00;99.90
4604;DHT22;2314;48.272;11.562;2023-11-21T14:30:33;8.00;99.90
4604;DHT22;2314;48.272;11.562;2023-11-21T14:33:03;8.00;99.90
4604;DHT22;2314;48.272;11.562;2023-11-21T14:35:30;8.00;99.90
4604;DHT22;2314;48.272;11.562;2023-11-21T14:37:58;8.00;99.90
4604;DHT22;2314;48.272;11.562;2023-11-21T14:40:26;7.90;99.90
4604;DHT22;2314;48.272;11.562;2023-11-21T14:42:58;7.90;99.90
4604;DHT22;2314;48.272;11.562;2023-11-21T14:45:26;7.90;99.90
4604;DHT22;2314;48.272;11.562;2023-11-21T14:47:54;7.90;99.90
4604;DHT22;2314;48.272;11.562;2023-11-21T14:50:33;7.90;99.90
4604;DHT22;2314;48.272;11.562;2023-11-21T14:53:17;7.90;99.90
4604;DHT22;2314;48.272;11.562;2023-11-21T14:56:04;7.90;99.90
4604;DHT22;2314;48.272;11.562;2023-11-21T14:58:33;7.90;99.90
4604;DHT22;2314;48.272;11.562;2023-11-21T15:01:00;7.90;99.90
4604;DHT22;2314;48.272;11.562;2023-11-21T15:03:28;7.90;99.90
4604;DHT22;2314;48.272;11.562;2023-11-21T15:06:16;7.90;99.90
4604;DHT22;2314;48.272;11.562;2023-11-21T15:08:51;7.80;99.90
4604;DHT22;2314;48.272;11.562;2023-11-21T15:11:25;7.80;99.90
4604;DHT22;2314;48.272;11.562;2023-11-21T15:13:56;7.80;99.90
4604;DHT22;2314;48.272;11.562;2023-11-21T15:16:24;7.70;99.90
4604;DHT22;2314;48.272;11.562;2023-11-21T15:18:52;7.40;99.90
4604;DHT22;2314;48.272;11.562;2023-11-21T15:21:21;7.30;99.90
4604;DHT22;2314;48.272;11.562;2023-11-21T15:23:49;7.10;99.90
4604;DHT22;2314;48.272;11.562;2023-11-21T15:26:17;7.00;99.90
4604;DHT22;2314;48.272;11.562;2023-11-21T15:28:44;7.00;99.90
4604;DHT22;2314;48.272;11.562;2023-11-21T15:31:11;6.90;99.90
4604;DHT22;2314;48.272;11.562;2023-11-21T15:33:38;6.90;99.90
4604;DHT22;2314;48.272;11.562;2023-11-21T15:36:06;6.80;99.90
4604;DHT22;2314;48.272;11.562;2023-11-21T15:38:36;6.80;99.90
4604;DHT22;2314;48.272;11.562;2023-11-21T15:41:04;6.70;99.90
4604;DHT22;2314;48.272;11.562;2023-11-21T15:43:34;6.60;99.90
4604;DHT22;2314;48.272;11.562;2023-11-21T15:46:01;6.60;99.90
4604;DHT22;2314;48.272;11.562;2023-11-21T15:48:33;6.50;99.90
4604;DHT22;2314;48.272;11.562;2023-11-21T15:51:01;6.40;99.90
4604;DHT22;2314;48.272;11.562;2023-11-21T15:53:30;6.30;99.90
4604;DHT22;2314;48.272;11.562;2023-11-21T15:55:59;6.30;99.90
4604;DHT22;2314;48.272;11.562;2023-11-21T15:58:26;6.20;99.90
4604;DHT22;2314;48.272;11.562;2023-11-21T16:00:54;6.20;99.90
4604;DHT22;2314;48.272;11.562;2023-11-21T16:03:22;6.20;99.90
4604;DHT22;2314;48.272;11.562;2023-11-21T16:05:49;6.20;99.90
4604;DHT22;2314;48.272;11.562;2023-11-21T16:08:16;6.20;99.90